Data for 01/23/2007

Time Sea-Level Adjusted Pressure Absolute Pressure Temperature Relative Humidity Dew Point   
(mb) (inHg) (mb) (inHg) (C) (F) (%) (C) (F)
00:05 1023 30.21 852 25.16 0.8 33.4 63 -5.4 22.3
00:10 1023 30.21 852 25.16 0.5 33 67 -4.9 23.2
00:15 1023 30.21 852 25.16 0 32 67 -5.4 22.3
00:20 1023 30.21 852 25.16 0.1 32.2 63 -6 21.1
00:25 1023 30.21 852 25.16 0.6 33 61 -6.2 20.9
00:30 1023 30.21 852 25.16 0.8 33.5 61 -5.9 21.4
00:35 1023 30.21 852 25.16 0.8 33.4 61 -5.9 21.4
00:40 1023 30.21 852 25.16 0.5 32.9 66 -5.2 22.7
00:45 1023 30.21 852 25.16 0.2 32.4 63 -5.9 21.3
00:50 1023 30.21 852 25.16 0.1 32.2 61 -6.5 20.3
00:55 1023 30.21 852 25.16 -0 31.9 61 -6.8 19.8
01:00 1023 30.21 852 25.16 0.1 32.2 60 -6.7 20
01:05 1023 30.21 852 25.16 0.4 32.8 60 -6.4 20.4
01:10 1023 30.21 852 25.16 0.6 33.1 58 -6.6 20.1
01:15 1023 30.21 852 25.16 0.8 33.4 58 -6.7 20
01:20 1023 30.21 852 25.16 0.9 33.5 58 -6.4 20.5
01:25 1023 30.21 852 25.16 0.9 33.7 57 -6.8 19.8
01:30 1023 30.21 852 25.16 1.1 33.9 57 -6.6 20.1
01:35 1023 30.21 852 25.16 1 33.9 56 -6.7 19.9
01:40 1023 30.21 852 25.16 1.1 34 57 -6.5 20.3
01:45 1023 30.21 852 25.16 1 33.9 57 -6.6 20.1
01:50 1023 30.21 852 25.16 1.1 34 57 -6.5 20.3
01:55 1023 30.21 852 25.16 1.2 34.2 57 -6.4 20.4
02:00 1023 30.21 852 25.16 1.2 34.2 56 -6.6 20.2
02:05 1023 30.21 852 25.16 1.2 34.2 57 -6.4 20.5
02:10 1023 30.21 852 25.16 1.2 34.2 56 -6.6 20.2
02:15 1023 30.21 852 25.16 1.2 34.2 58 -6.3 20.7
02:20 1023 30.21 852 25.16 0.9 33.7 58 -6.5 20.4
02:25 1023 30.21 852 25.16 0.9 33.7 59 -6.2 20.8
02:30 1023 30.21 852 25.16 0.9 33.7 58 -6.5 20.4
02:35 1023 30.21 852 25.16 0.9 33.7 58 -6.4 20.5
02:40 1023 30.21 852 25.16 0.9 33.6 58 -6.5 20.4
02:45 1023 30.21 852 25.16 1 33.8 59 -6.1 21
02:50 1023 30.21 852 25.16 1 33.7 60 -6 21.2
02:55 1023 30.21 853 25.19 0.9 33.6 59 -6.2 20.9
03:00 1023 30.21 853 25.19 0.8 33.4 60 -6 21.2
03:05 1023 30.21 853 25.19 0.9 33.6 60 -6 21.1
03:10 1023 30.21 853 25.19 0.8 33.5 61 -5.9 21.3
03:15 1023 30.21 853 25.19 0.7 33.3 61 -5.9 21.4
03:20 1024 30.24 853 25.19 0.7 33.3 61 -6 21.2
03:25 1024 30.24 853 25.19 0.6 33.1 62 -5.8 21.5
03:30 1024 30.24 853 25.19 0.7 33.3 61 -6 21.1
03:35 1024 30.24 853 25.19 0.8 33.4 60 -6 21.1
03:40 1024 30.24 853 25.19 0.8 33.4 60 -6.2 20.9
03:45 1024 30.24 853 25.19 0.7 33.3 61 -6 21.3
03:50 1024 30.24 853 25.19 0.5 33 63 -5.7 21.8
03:55 1024 30.24 853 25.19 0.4 32.7 63 -5.8 21.5
04:00 1024 30.24 853 25.19 0.4 32.7 62 -6 21.2
04:05 1024 30.24 853 25.19 0.3 32.6 63 -6 21.2
04:10 1024 30.24 853 25.19 0.4 32.7 62 -6.1 21
04:15 1024 30.24 853 25.19 0.5 33 61 -6.2 20.9
04:20 1024 30.24 853 25.19 0.6 33 61 -6.1 21.1
04:25 1024 30.24 853 25.19 0.5 32.9 62 -5.9 21.4
04:30 1024 30.24 853 25.19 0.5 32.9 60 -6.3 20.7
04:35 1024 30.24 853 25.19 0.6 33 60 -6.2 20.8
04:40 1024 30.24 853 25.19 0.6 33 60 -6.3 20.6
04:45 1024 30.24 853 25.19 0.6 33 60 -6.4 20.6
04:50 1024 30.24 853 25.19 0.6 33 60 -6.4 20.5
04:55 1024 30.24 853 25.19 0.5 33 60 -6.4 20.5
05:00 1024 30.24 853 25.19 0.3 32.6 60 -6.5 20.3
05:05 1024 30.24 853 25.19 0.2 32.4 60 -6.8 19.8
05:10 1024 30.24 853 25.19 0 32 61 -6.7 20
05:15 1024 30.24 853 25.19 -0.2 31.6 61 -6.9 19.6
05:20 1024 30.24 853 25.19 -0.4 31.3 60 -7.3 18.9
05:25 1024 30.24 853 25.19 -0.4 31.2 61 -7 19.4
05:30 1024 30.24 854 25.22 -0.5 31.2 61 -7.1 19.2
05:35 1024 30.24 854 25.22 -0.2 31.6 60 -7 19.4
05:40 1024 30.24 854 25.22 -0.2 31.6 61 -6.9 19.6
05:45 1024 30.24 854 25.22 -0.1 31.7 59 -7.1 19.2
05:50 1024 30.24 853 25.19 -0.3 31.5 59 -7.3 18.8
05:55 1024 30.24 853 25.19 -0.3 31.4 59 -7.3 18.9
06:00 1024 30.24 853 25.19 -0.4 31.4 60 -7.2 19.1
06:05 1024 30.24 853 25.19 -0.3 31.4 60 -7.2 19.1
06:10 1024 30.24 854 25.22 -0.3 31.5 59 -7.3 18.8
06:15 1024 30.24 853 25.19 -0.4 31.2 60 -7.3 18.8
06:20 1024 30.24 854 25.22 -0.6 30.9 61 -7.3 18.9
06:25 1024 30.24 853 25.19 -0.7 30.8 63 -6.9 19.5
06:30 1024 30.24 853 25.19 -1 30.2 63 -7.1 19.3
06:35 1024 30.24 853 25.19 -0.8 30.6 62 -7.2 19.1
06:40 1024 30.24 853 25.19 -0.7 30.8 62 -7 19.3
06:45 1024 30.24 853 25.19 -0.6 31 63 -6.7 20
06:50 1024 30.24 853 25.19 -1.1 30 68 -6.3 20.6
06:55 1024 30.24 853 25.19 -1.4 29.4 69 -6.3 20.6
07:00 1024 30.24 853 25.19 -1.3 29.6 71 -6 21.2
07:05 1024 30.24 853 25.19 -1.2 29.9 69 -6.2 20.9
07:10 1024 30.24 853 25.19 -1 30.2 69 -6 21.2
07:15 1024 30.24 853 25.19 -0.9 30.4 68 -6.1 21
07:20 1024 30.24 853 25.19 -0.9 30.4 66 -6.4 20.4
07:25 1024 30.24 853 25.19 -0.9 30.4 66 -6.5 20.4
07:30 1024 30.24 853 25.19 -1.2 29.8 69 -6.3 20.7
07:35 1024 30.24 853 25.19 -1.5 29.3 70 -6.3 20.6
07:40 1024 30.24 854 25.22 -1.4 29.4 69 -6.4 20.4
07:45 1024 30.24 853 25.19 -1.6 29.1 69 -6.5 20.2
07:50 1024 30.24 853 25.19 -1.7 29 68 -6.8 19.8
07:55 1024 30.24 854 25.22 -1.8 28.8 69 -6.7 19.9
08:00 1025 30.27 854 25.22 -2 28.4 72 -6.4 20.5
08:05 1025 30.27 854 25.22 -1.7 28.9 70 -6.5 20.3
08:10 1025 30.27 854 25.22 -1.1 29.9 69 -6.2 20.9
08:15 1025 30.27 854 25.22 -1.1 30 70 -5.9 21.4
08:20 1025 30.27 854 25.22 -1.2 29.9 70 -5.9 21.3
08:25 1025 30.27 854 25.22 -1.5 29.3 74 -5.6 21.9
08:30 1025 30.27 854 25.22 -1.7 28.9 74 -5.8 21.6
08:35 1025 30.27 854 25.22 -1.7 28.9 73 -5.9 21.5
08:40 1025 30.27 854 25.22 -1.7 28.9 75 -5.6 21.9
08:45 1025 30.27 854 25.22 -1.5 29.2 74 -5.5 22.1
08:50 1025 30.27 854 25.22 -1 30.3 72 -5.4 22.3
08:55 1025 30.27 854 25.22 -0.6 30.9 70 -5.5 22.1
09:00 1025 30.27 854 25.22 -0.7 30.8 69 -5.6 21.9
09:05 1025 30.27 854 25.22 -0.9 30.3 70 -5.7 21.8
09:10 1025 30.27 854 25.22 -1.1 30.1 71 -5.7 21.7
09:15 1025 30.27 854 25.22 -1.2 29.9 71 -5.9 21.4
09:20 1025 30.27 854 25.22 -1.1 30 69 -6.1 21
09:25 1025 30.27 854 25.22 -1.1 29.9 70 -5.9 21.4
09:30 1025 30.27 854 25.22 -1.6 29 71 -6.2 20.9
09:35 1025 30.27 854 25.22 -1.6 29.2 70 -6.4 20.5
09:40 1025 30.27 854 25.22 -0.7 30.7 65 -6.5 20.3
09:45 1025 30.27 854 25.22 0.1 32.2 60 -6.7 20
09:50 1025 30.27 854 25.22 0.4 32.7 60 -6.5 20.2
09:55 1025 30.27 854 25.22 0.7 33.3 59 -6.3 20.7
10:00 1025 30.27 854 25.22 0.7 33.3 59 -6.3 20.7
10:05 1025 30.27 854 25.22 0.5 33 60 -6.3 20.7
10:10 1025 30.27 854 25.22 0.3 32.5 60 -6.5 20.3
10:15 1025 30.27 854 25.22 1 33.8 58 -6.3 20.6
10:20 1025 30.27 854 25.22 1.6 34.8 55 -6.5 20.4
10:25 1025 30.27 854 25.22 1.9 35.4 54 -6.4 20.6
10:30 1025 30.27 854 25.22 1.8 35.3 55 -6.2 20.9
10:35 1025 30.27 854 25.22 1.6 34.9 56 -6.2 20.8
10:40 1025 30.27 854 25.22 2.1 35.8 54 -6.2 20.9
10:45 1025 30.27 854 25.22 2.5 36.6 53 -6.1 21
10:50 1025 30.27 855 25.25 2.8 37.1 53 -5.9 21.3
10:55 1025 30.27 855 25.25 2.8 37.1 51 -6.2 20.8
11:00 1025 30.27 855 25.25 2.7 36.8 53 -5.9 21.3
11:05 1025 30.27 855 25.25 2.4 36.2 54 -6 21.1
11:10 1025 30.27 855 25.25 2.6 36.7 53 -6 21.2
11:15 1025 30.27 855 25.25 2.8 37.1 53 -5.9 21.4
11:20 1025 30.27 854 25.22 3.5 38.3 49 -6.1 21
11:25 1025 30.27 854 25.22 4.5 40.1 48 -5.6 21.9
11:30 1025 30.27 854 25.22 4 39.3 50 -5.5 22.1
11:35 1025 30.27 854 25.22 4.3 39.7 49 -5.5 22.1
11:40 1025 30.27 854 25.22 4.9 40.9 46 -5.6 21.9
11:45 1025 30.27 854 25.22 5.3 41.5 46 -5.4 22.3
11:50 1025 30.27 854 25.22 5.4 41.8 46 -5.3 22.4
11:55 1025 30.27 854 25.22 5.1 41.2 47 -5.2 22.6
12:00 1025 30.27 854 25.22 5.2 41.3 46 -5.4 22.2
12:05 1025 30.27 854 25.22 5.1 41.2 46 -5.6 21.9
12:10 1025 30.27 854 25.22 5.2 41.4 45 -5.7 21.7
12:15 1025 30.27 854 25.22 5.5 42 45 -5.5 22.1
12:20 1025 30.27 854 25.22 6.2 43.1 43 -5.6 22
12:25 1025 30.27 854 25.22 5.7 42.3 46 -5.1 22.7
12:30 1025 30.27 854 25.22 5.1 41.1 46 -5.6 22
12:35 1025 30.27 854 25.22 4.7 40.4 47 -5.7 21.8
12:40 1025 30.27 854 25.22 4.8 40.7 46 -5.7 21.7
12:45 1025 30.27 854 25.22 5 41 46 -5.6 21.9
12:50 1025 30.27 854 25.22 5.3 41.5 47 -5.1 22.7
12:55 1025 30.27 854 25.22 5.3 41.5 48 -4.8 23.3
13:00 1025 30.27 854 25.22 4.9 40.9 49 -5 22.9
13:05 1025 30.27 854 25.22 5.4 41.6 47 -5.1 22.8
13:10 1024 30.24 854 25.22 4.5 40.1 50 -5.1 22.9
13:15 1024 30.24 854 25.22 3.4 38.1 53 -5.4 22.4
13:20 1024 30.24 854 25.22 2.9 37.3 54 -5.6 22
13:25 1024 30.24 853 25.19 3.1 37.6 52 -5.8 21.6
13:30 1024 30.24 853 25.19 3 37.5 53 -5.7 21.7
13:35 1024 30.24 853 25.19 3.2 37.8 52 -5.6 21.8
13:40 1024 30.24 853 25.19 3.1 37.6 53 -5.5 22.1
13:45 1024 30.24 853 25.19 3.3 38 52 -5.5 22.1
13:50 1024 30.24 853 25.19 4.5 40.1 49 -5.4 22.3
13:55 1024 30.24 853 25.19 4.9 40.9 48 -5.2 22.7
14:00 1024 30.24 853 25.19 4.8 40.6 48 -5.3 22.4
14:05 1024 30.24 853 25.19 5.1 41.2 47 -5.2 22.6
14:10 1024 30.24 853 25.19 5.4 41.7 45 -5.7 21.8
14:15 1024 30.24 853 25.19 5.9 42.6 43 -5.7 21.8
14:20 1024 30.24 853 25.19 5.8 42.5 45 -5.2 22.7
14:25 1024 30.24 853 25.19 5.1 41.1 48 -5.1 22.8
14:30 1024 30.24 853 25.19 4.7 40.5 47 -5.5 22.1
14:35 1024 30.24 853 25.19 4.9 40.8 48 -5.2 22.6
14:40 1024 30.24 853 25.19 4.7 40.5 48 -5.3 22.4
14:45 1024 30.24 853 25.19 4.7 40.5 48 -5.3 22.4
14:50 1024 30.24 853 25.19 4.7 40.5 48 -5.2 22.6
14:55 1024 30.24 853 25.19 4.8 40.7 49 -4.9 23.1
15:00 1024 30.24 853 25.19 4.7 40.5 51 -4.7 23.6
15:05 1024 30.24 853 25.19 4.7 40.5 51 -4.6 23.7
15:10 1024 30.24 853 25.19 4.8 40.7 51 -4.5 23.9
15:15 1024 30.24 853 25.19 5.1 41.1 50 -4.5 24
15:20 1024 30.24 853 25.19 5.1 41.2 48 -4.9 23.1
15:25 1024 30.24 853 25.19 5.1 41.2 50 -4.5 23.9
15:30 1024 30.24 854 25.22 5.2 41.4 49 -4.7 23.5
15:35 1025 30.27 854 25.22 5.1 41.1 49 -4.7 23.5
15:40 1025 30.27 854 25.22 4.7 40.5 52 -4.4 24.1
15:45 1025 30.27 854 25.22 4.6 40.2 52 -4.5 23.9
15:50 1025 30.27 854 25.22 4.4 40 52 -4.5 23.8
15:55 1025 30.27 854 25.22 4.4 40 53 -4.4 24
16:00 1025 30.27 854 25.22 4.3 39.7 56 -3.7 25.3
16:05 1025 30.27 854 25.22 3.1 37.5 61 -3.7 25.3
16:10 1025 30.27 854 25.22 2.7 36.8 62 -3.9 24.9
16:15 1025 30.27 854 25.22 2.8 37 60 -4.3 24.3
16:20 1025 30.27 854 25.22 3 37.3 58 -4.5 23.9
16:25 1025 30.27 854 25.22 3 37.3 59 -4.2 24.4
16:30 1025 30.27 854 25.22 3 37.4 59 -4.2 24.5
16:35 1025 30.27 854 25.22 3 37.3 59 -4.3 24.2
16:40 1025 30.27 854 25.22 2.9 37.2 60 -4.1 24.7
16:45 1025 30.27 854 25.22 3 37.4 61 -3.8 25.2
16:50 1025 30.27 854 25.22 3 37.5 60 -3.9 24.9
16:55 1025 30.27 854 25.22 3 37.4 60 -4.1 24.6
17:00 1025 30.27 854 25.22 3.3 38 57 -4.4 24
17:05 1025 30.27 854 25.22 3.4 38.1 57 -4.3 24.3
17:10 1025 30.27 854 25.22 3.4 38.1 57 -4.3 24.2
17:15 1025 30.27 854 25.22 3.4 38.1 59 -3.9 25
17:20 1025 30.27 854 25.22 3.3 38 60 -3.6 25.4
17:25 1025 30.27 854 25.22 3.3 37.9 60 -3.9 25.1
17:30 1025 30.27 854 25.22 3.4 38.1 58 -4 24.8
17:35 1025 30.27 854 25.22 3.4 38.1 58 -4 24.8
17:40 1025 30.27 855 25.25 3.2 37.8 59 -4 24.9
17:45 1025 30.27 855 25.25 3.4 38.1 59 -3.9 25
17:50 1025 30.27 855 25.25 3.6 38.6 57 -4.1 24.7
17:55 1025 30.27 855 25.25 3.3 37.9 60 -3.8 25.2
18:00 1025 30.27 855 25.25 3.1 37.6 61 -3.7 25.4
18:05 1025 30.27 855 25.25 3.2 37.8 61 -3.6 25.5
18:10 1025 30.27 855 25.25 3.3 38 58 -4 24.7
18:15 1025 30.27 855 25.25 3.5 38.3 59 -3.7 25.4
18:20 1025 30.27 855 25.25 3.4 38.1 61 -3.3 26
18:25 1025 30.27 855 25.25 3.3 37.9 63 -3.2 26.2
18:30 1025 30.27 854 25.22 3 37.4 63 -3.3 26
18:35 1025 30.27 855 25.25 3.1 37.6 61 -3.8 25.2
18:40 1025 30.27 855 25.25 3.3 38 62 -3.3 26.1
18:45 1025 30.27 855 25.25 3.4 38 60 -3.7 25.4
18:50 1026 30.3 855 25.25 3.6 38.5 60 -3.4 25.9
18:55 1026 30.3 855 25.25 3.8 38.8 58 -3.7 25.3
19:00 1026 30.3 855 25.25 3.8 38.9 59 -3.5 25.7
19:05 1026 30.3 855 25.25 3.9 39 54 -4.5 23.9
19:10 1026 30.3 855 25.25 4.1 39.3 58 -3.4 25.9
19:15 1025 30.27 855 25.25 3.8 38.9 59 -3.4 25.8
19:20 1025 30.27 855 25.25 4.1 39.4 57 -3.7 25.3
19:25 1025 30.27 855 25.25 4 39.2 58 -3.5 25.7
19:30 1025 30.27 854 25.22 3.9 39 59 -3.4 25.9
19:35 1025 30.27 855 25.25 3.9 38.9 62 -2.8 27
19:40 1025 30.27 855 25.25 4 39.1 62 -2.7 27.2
19:45 1025 30.27 855 25.25 4 39.2 62 -2.7 27.1
19:50 1025 30.27 855 25.25 3.9 38.9 63 -2.6 27.3
19:55 1025 30.27 854 25.22 3.3 37.9 63 -3.1 26.4
20:00 1025 30.27 855 25.25 3.1 37.5 61 -3.8 25.1
20:05 1025 30.27 855 25.25 3.4 38.2 65 -2.6 27.4
20:10 1025 30.27 855 25.25 3.3 38 65 -2.6 27.4
20:15 1026 30.3 855 25.25 3.3 38 64 -2.7 27.1
20:20 1026 30.3 855 25.25 3.4 38.1 61 -3.4 25.8
20:25 1025 30.27 855 25.25 3.6 38.4 61 -3.2 26.3
20:30 1026 30.3 855 25.25 3.6 38.4 62 -3 26.5
20:35 1026 30.3 855 25.25 3.8 38.8 62 -2.8 27
20:40 1026 30.3 855 25.25 3.8 38.8 62 -2.9 26.8
20:45 1026 30.3 855 25.25 3.4 38.1 64 -2.8 26.9
20:50 1026 30.3 855 25.25 3.3 37.9 66 -2.5 27.5
20:55 1026 30.3 855 25.25 3.3 37.9 64 -2.8 26.9
21:00 1026 30.3 855 25.25 3.6 38.5 67 -2 28.4
21:05 1026 30.3 855 25.25 3.2 37.8 68 -2.2 28.1
21:10 1026 30.3 855 25.25 3.3 37.9 66 -2.4 27.7
21:15 1026 30.3 855 25.25 3.4 38 66 -2.4 27.7
21:20 1026 30.3 855 25.25 3.5 38.4 64 -2.5 27.4
21:25 1026 30.3 855 25.25 4 39.2 63 -2.5 27.5
21:30 1026 30.3 855 25.25 4.1 39.5 64 -2 28.4
21:35 1026 30.3 855 25.25 3.6 38.6 67 -2 28.4
21:40 1026 30.3 855 25.25 3.5 38.3 65 -2.5 27.6
21:45 1026 30.3 855 25.25 3.9 39 65 -2.1 28.1
21:50 1026 30.3 855 25.25 4.1 39.3 64 -2.1 28.2
21:55 1026 30.3 855 25.25 4.4 39.8 60 -2.6 27.2
22:00 1026 30.3 855 25.25 4.7 40.5 60 -2.4 27.7
22:05 1026 30.3 855 25.25 4.6 40.3 62 -2 28.5
22:10 1026 30.3 855 25.25 4.6 40.2 59 -2.8 27
22:15 1026 30.3 855 25.25 5.1 41.1 57 -2.6 27.3
22:20 1026 30.3 855 25.25 5.2 41.4 58 -2.4 27.7
22:25 1026 30.3 855 25.25 5.2 41.3 60 -1.9 28.5
22:30 1026 30.3 855 25.25 4.8 40.6 63 -1.7 29
22:35 1026 30.3 855 25.25 4.5 40.1 65 -1.4 29.5
22:40 1026 30.3 855 25.25 4.5 40.1 61 -2.3 27.9
22:45 1026 30.3 855 25.25 4.5 40.1 62 -2 28.4
22:50 1026 30.3 855 25.25 4.7 40.4 62 -1.9 28.5
22:55 1026 30.3 855 25.25 4.8 40.7 61 -2.1 28.2
23:00 1026 30.3 855 25.25 5.1 41.1 60 -2.1 28.3
23:05 1026 30.3 855 25.25 5.1 41.2 60 -2 28.4
23:10 1026 30.3 855 25.25 5.1 41.1 61 -1.8 28.8
23:15 1026 30.3 855 25.25 5.1 41.1 61 -1.9 28.6
23:20 1026 30.3 856 25.28 5.2 41.4 60 -2 28.5
23:25 1026 30.3 856 25.28 5.4 41.7 59 -2.1 28.3
23:30 1026 30.3 856 25.28 5.4 41.6 60 -1.7 28.9
23:35 1026 30.3 856 25.28 4.9 40.8 63 -1.4 29.4
23:40 1027 30.33 856 25.28 4.5 40.1 66 -1.4 29.6
23:45 1027 30.33 856 25.28 4.2 39.5 68 -1.1 30.1
23:50 1027 30.33 856 25.28 4 39.2 69 -1.2 29.8
23:55 1027 30.33 856 25.28 4.1 39.4 68 -1.3 29.6
24:00 1027 30.33 856 25.28 4.3 39.8 66 -1.4 29.5